Terminal Aerodrome Forecast
Issued by NWS

Home | Current Version | Previous Version | Text Only | Print | Product List | Glossary On
Versions: 1 2 3 4 5 6 7 8 9 10 11 12 13 14 15 16 17 18 19 20 21 22
048
FTUS43 KGRR 101740
TAFBTL
TAF
KBTL 101740Z 1018/1118 23008KT 2SM -SHSN BKN025
     FM110400 17007KT 1 1/2SM -SN OVC009
     FM111400 15010KT 1SM -SN BR OVC007
     FM111600 16011KT 1/2SM SN FG OVC007=

USA.gov is the U.S. government's official web portal to all federal, state and local government web resources and services.